Time;durP1;ratioP1;P1;durP2;ratioP2;P2;SDS_P1;SDS_P2;PMS_P1;PMS_P2;Temp;Humidity;BMP_temperature;BMP_pressure;BME280_temperature;BME280_humidity;BME280_pressure;Samples;Min_cycle;Max_cycle;Signal;HPM_P1;HPM_P2
2023/05/21 00:01:22;;;;;;;4.32;2.80;;;;;;;13.48;67.38;101732.34;5033820;28;20041;-77
2023/05/21 00:03:48;;;;;;;4.03;2.70;;;;;;;13.44;67.82;101736.81;5036097;28;20025;-77
2023/05/21 00:06:14;;;;;;;4.35;2.60;;;;;;;13.45;67.29;101733.28;5028481;28;20029;-77
2023/05/21 00:08:40;;;;;;;4.38;2.70;;;;;;;13.43;67.59;101734.19;5032620;28;20036;-77
2023/05/21 00:11:05;;;;;;;4.03;2.90;;;;;;;13.40;67.34;101729.91;5031951;28;20026;-77
2023/05/21 00:13:31;;;;;;;5.50;3.30;;;;;;;13.37;67.94;101724.72;5033547;28;20021;-77
2023/05/21 00:15:56;;;;;;;5.75;3.40;;;;;;;13.33;67.88;101729.16;5035509;28;20033;-77
2023/05/21 00:18:24;;;;;;;4.32;3.05;;;;;;;13.30;68.56;101729.25;5035458;28;20021;-77
2023/05/21 00:20:50;;;;;;;4.93;2.92;;;;;;;13.26;68.52;101727.59;5034038;28;20120;-81
2023/05/21 00:23:17;;;;;;;4.45;3.08;;;;;;;13.25;68.10;101725.00;5034300;28;20105;-77
2023/05/21 00:25:43;;;;;;;4.30;3.28;;;;;;;13.23;68.41;101721.56;5040456;28;20021;-77
2023/05/21 00:28:08;;;;;;;4.15;3.28;;;;;;;13.20;69.08;101718.13;5055520;28;20017;-77
2023/05/21 00:30:34;;;;;;;3.90;3.05;;;;;;;13.20;68.81;101718.13;5041468;28;20435;-77
2023/05/21 00:33:01;;;;;;;5.18;3.20;;;;;;;13.17;69.17;101715.59;5035182;28;20017;-77
2023/05/21 00:35:27;;;;;;;3.72;2.78;;;;;;;13.17;68.94;101709.50;5035477;28;20017;-77
2023/05/21 00:37:52;;;;;;;3.63;2.85;;;;;;;13.16;69.03;101724.31;5035544;28;20052;-77
2023/05/21 00:40:18;;;;;;;3.95;3.00;;;;;;;13.15;68.93;101719.97;5034281;28;20109;-77
2023/05/21 00:42:46;;;;;;;4.05;2.83;;;;;;;13.14;69.09;101717.41;5038172;28;20435;-78
2023/05/21 00:45:13;;;;;;;4.88;3.17;;;;;;;13.14;69.08;101715.69;5033742;28;20560;-79
2023/05/21 00:47:40;;;;;;;4.85;2.80;;;;;;;13.12;69.22;101708.75;5032294;28;20029;-77
2023/05/21 00:50:07;;;;;;;4.70;2.95;;;;;;;13.12;69.53;101703.53;5032648;28;20099;-77
2023/05/21 00:52:40;;;;;;;4.90;3.50;;;;;;;13.10;69.58;101700.97;5032948;28;20049;-77
2023/05/21 00:55:08;;;;;;;3.80;2.78;;;;;;;13.08;69.51;101702.75;5032058;28;20136;-77
2023/05/21 00:57:35;;;;;;;4.18;2.70;;;;;;;13.05;69.76;101698.47;5033680;28;20031;-77
2023/05/21 01:00:03;;;;;;;4.75;3.13;;;;;;;13.05;69.96;101706.28;5031899;28;20025;-78
2023/05/21 01:02:31;;;;;;;4.53;3.17;;;;;;;13.05;70.14;101702.81;5033535;28;20419;-77
2023/05/21 01:04:59;;;;;;;4.85;3.13;;;;;;;13.07;70.14;101703.63;5032219;28;20431;-77
2023/05/21 01:07:24;;;;;;;4.60;3.33;;;;;;;13.05;70.14;101708.03;5029077;28;20066;-77
2023/05/21 01:09:50;;;;;;;4.25;2.90;;;;;;;13.04;70.42;101701.09;5030488;28;20025;-77
2023/05/21 01:12:17;;;;;;;5.32;3.10;;;;;;;13.05;70.56;101702.81;5032624;28;20087;-77
2023/05/21 01:14:42;;;;;;;5.78;3.08;;;;;;;13.05;70.76;101702.81;5033261;28;20028;-77
2023/05/21 01:17:09;;;;;;;6.15;3.15;;;;;;;13.04;70.61;101701.09;5032327;28;20033;-77
2023/05/21 01:19:35;;;;;;;5.93;3.30;;;;;;;13.03;70.84;101699.38;5028950;28;20100;-77
2023/05/21 01:22:04;;;;;;;4.10;3.08;;;;;;;13.03;70.82;101694.13;5031569;28;20028;-77
2023/05/21 01:24:30;;;;;;;4.45;2.85;;;;;;;13.03;70.81;101700.25;5032601;28;20022;-77
2023/05/21 01:26:57;;;;;;;4.90;3.50;;;;;;;13.03;71.01;101694.13;5032444;28;20051;-77
2023/05/21 01:29:23;;;;;;;6.85;3.08;;;;;;;13.03;70.96;101694.13;5031289;28;20119;-77
2023/05/21 01:32:23;;;;;;;4.95;3.15;;;;;;;13.04;69.08;101701.09;5032481;28;20473;-77
2023/05/21 01:35:04;;;;;;;4.20;3.10;;;;;;;13.03;70.35;101700.25;5032738;28;20100;-77
2023/05/21 01:37:36;;;;;;;4.78;3.00;;;;;;;13.04;70.68;101690.63;5031247;28;20040;-77
2023/05/21 01:40:09;;;;;;;3.78;3.00;;;;;;;13.04;70.54;101690.63;5032419;28;20021;-78
2023/05/21 01:42:37;;;;;;;5.10;3.40;;;;;;;13.04;70.83;101690.63;5031053;28;20029;-77
2023/05/21 01:45:05;;;;;;;4.32;3.20;;;;;;;13.03;70.84;101689.78;5032947;28;20062;-78
2023/05/21 01:47:31;;;;;;;6.45;3.03;;;;;;;13.03;71.15;101684.56;5032081;28;20026;-77
2023/05/21 01:49:59;;;;;;;4.50;3.20;;;;;;;13.02;71.07;101688.06;5030317;28;20033;-77
2023/05/21 01:52:25;;;;;;;4.18;2.85;;;;;;;13.03;71.08;101694.13;5031358;28;20033;-77
2023/05/21 01:54:50;;;;;;;5.70;2.90;;;;;;;13.03;71.05;101688.91;5032062;28;20025;-78
2023/05/21 01:57:17;;;;;;;5.40;3.00;;;;;;;13.03;71.30;101678.47;5033544;28;20040;-77
2023/05/21 01:59:43;;;;;;;5.50;2.90;;;;;;;13.04;71.49;101685.41;5028167;28;20400;-77
2023/05/21 02:02:08;;;;;;;6.43;3.03;;;;;;;13.05;71.38;101676.69;5029958;28;20501;-77
2023/05/21 02:04:33;;;;;;;4.85;3.03;;;;;;;13.03;71.51;101674.13;5031539;28;20032;-77
2023/05/21 02:06:59;;;;;;;5.18;3.15;;;;;;;13.04;71.71;101674.97;5026250;28;20030;-77
2023/05/21 02:09:24;;;;;;;5.20;3.05;;;;;;;13.05;71.97;101671.47;5031494;28;20391;-77
2023/05/21 02:11:49;;;;;;;4.03;2.83;;;;;;;13.08;72.01;101671.41;5032571;28;20504;-77
2023/05/21 02:14:15;;;;;;;4.57;2.92;;;;;;;13.12;72.20;101672.19;5032735;28;20022;-77
2023/05/21 02:16:41;;;;;;;4.22;3.08;;;;;;;13.14;72.33;101671.25;5030668;28;20461;-77
2023/05/21 02:19:09;;;;;;;3.80;2.65;;;;;;;13.15;72.48;101672.94;5031084;28;20021;-77
2023/05/21 02:21:34;;;;;;;4.53;2.90;;;;;;;13.16;72.28;101671.22;5030924;28;20021;-77
2023/05/21 02:23:59;;;;;;;3.88;2.90;;;;;;;13.15;72.43;101667.72;5032791;28;20091;-77
2023/05/21 02:26:25;;;;;;;3.65;2.80;;;;;;;13.17;72.48;101670.31;5030565;28;20036;-77
2023/05/21 02:28:51;;;;;;;4.38;3.08;;;;;;;13.18;72.31;101672.88;5029254;28;20103;-77
2023/05/21 02:31:17;;;;;;;4.93;2.90;;;;;;;13.20;72.37;101670.25;5031442;28;20477;-77
2023/05/21 02:33:42;;;;;;;4.72;3.20;;;;;;;13.21;72.38;101671.97;5032363;28;20526;-77
2023/05/21 02:36:11;;;;;;;5.15;3.03;;;;;;;13.21;72.66;101671.97;5031776;28;20033;-77
2023/05/21 02:38:37;;;;;;;4.82;2.85;;;;;;;13.23;72.69;101671.94;5029441;28;20021;-77
2023/05/21 02:41:02;;;;;;;5.72;3.20;;;;;;;13.23;72.43;101675.41;5031949;28;20366;-77
2023/05/21 02:43:27;;;;;;;4.43;3.17;;;;;;;13.23;72.10;101671.94;5032533;28;20025;-77
2023/05/21 02:45:52;;;;;;;5.35;3.30;;;;;;;13.21;72.44;101670.22;5031194;28;20408;-77
2023/05/21 02:48:18;;;;;;;4.47;3.13;;;;;;;13.20;73.06;101667.66;5030257;28;20030;-77
2023/05/21 02:50:43;;;;;;;4.72;3.20;;;;;;;13.19;72.56;101665.94;5022639;28;20079;-77
2023/05/21 02:53:08;;;;;;;4.13;2.80;;;;;;;13.19;72.83;101668.53;5030930;28;20061;-77
2023/05/21 02:55:33;;;;;;;4.65;3.10;;;;;;;13.17;72.70;101665.94;5031279;28;20564;-77
2023/05/21 02:57:59;;;;;;;4.57;2.95;;;;;;;13.20;72.57;101665.03;5029112;28;20034;-77
2023/05/21 03:00:24;;;;;;;4.90;3.00;;;;;;;13.21;72.74;101661.53;5030672;28;20091;-77
2023/05/21 03:02:50;;;;;;;5.35;3.20;;;;;;;13.21;72.73;101657.16;5031562;28;20033;-77
2023/05/21 03:05:15;;;;;;;7.00;3.20;;;;;;;13.23;72.67;101656.25;5032543;28;20036;-77
2023/05/21 03:07:41;;;;;;;4.13;3.20;;;;;;;13.23;73.07;101654.50;5029680;28;20166;-77
2023/05/21 03:10:06;;;;;;;4.47;3.22;;;;;;;13.23;72.88;101653.63;5029732;28;20040;-77
2023/05/21 03:12:31;;;;;;;3.80;2.92;;;;;;;13.23;72.83;101648.41;5030662;28;20077;-77
2023/05/21 03:14:58;;;;;;;4.25;3.20;;;;;;;13.23;73.15;101648.41;5032055;28;20493;-77
2023/05/21 03:17:23;;;;;;;5.53;3.38;;;;;;;13.25;73.13;101651.84;5034696;28;20030;-77
2023/05/21 03:19:48;;;;;;;4.00;2.95;;;;;;;13.26;73.31;101650.97;5031426;28;20034;-77
2023/05/21 03:22:14;;;;;;;4.40;3.35;;;;;;;13.23;73.29;101645.78;5031843;28;20361;-77
2023/05/21 03:24:40;;;;;;;4.80;3.10;;;;;;;13.23;73.38;101644.06;5031803;28;20481;-77
2023/05/21 03:27:06;;;;;;;4.80;3.03;;;;;;;13.24;73.21;101639.69;5032136;28;20060;-77
2023/05/21 03:29:32;;;;;;;5.55;3.25;;;;;;;13.24;73.36;101643.13;5034904;28;20035;-77
2023/05/21 03:31:57;;;;;;;4.40;3.55;;;;;;;13.23;73.75;101640.56;5034644;28;20033;-77
2023/05/21 03:34:23;;;;;;;4.55;3.25;;;;;;;13.18;73.51;101641.53;5037187;28;20071;-77
2023/05/21 03:36:48;;;;;;;4.85;3.40;;;;;;;13.17;73.75;101642.44;5036279;28;20443;-77
2023/05/21 03:39:14;;;;;;;5.05;3.40;;;;;;;13.16;74.04;101642.47;5033596;28;20033;-77
2023/05/21 03:41:39;;;;;;;5.93;3.30;;;;;;;13.14;73.95;101639.03;5034962;28;20128;-77
2023/05/21 03:44:05;;;;;;;5.50;3.40;;;;;;;13.13;73.96;101632.97;5034144;28;20427;-77
2023/05/21 03:46:30;;;;;;;4.78;3.05;;;;;;;13.12;74.05;101636.47;5035256;28;20527;-77
2023/05/21 03:48:57;;;;;;;4.65;3.20;;;;;;;13.10;74.11;101642.59;5032523;28;20033;-77
2023/05/21 03:51:23;;;;;;;4.88;3.38;;;;;;;13.09;74.21;101647.00;5034246;28;20097;-77
2023/05/21 03:53:49;;;;;;;4.90;3.33;;;;;;;13.08;74.24;101645.28;5033496;28;20025;-77
2023/05/21 03:56:14;;;;;;;5.60;3.42;;;;;;;13.08;74.37;101649.63;5036247;28;20025;-78
2023/05/21 03:58:39;;;;;;;4.97;3.70;;;;;;;13.08;74.46;101639.16;5034422;28;20026;-77
2023/05/21 04:01:05;;;;;;;4.10;3.13;;;;;;;13.07;74.53;101643.56;5033823;28;20108;-77
2023/05/21 04:03:34;;;;;;;5.13;3.55;;;;;;;13.05;74.42;101646.22;5034900;28;20031;-77
2023/05/21 04:06:00;;;;;;;8.35;4.10;;;;;;;13.03;74.62;101640.16;5033190;28;20034;-77
2023/05/21 04:08:26;;;;;;;5.72;3.60;;;;;;;13.03;74.73;101644.50;5032766;28;20025;-77
2023/05/21 04:10:51;;;;;;;6.57;3.67;;;;;;;13.03;74.60;101652.34;5032469;28;20109;-77
2023/05/21 04:13:16;;;;;;;6.47;3.72;;;;;;;13.02;74.93;101643.66;5031160;28;20033;-77
2023/05/21 04:15:43;;;;;;;4.30;3.20;;;;;;;13.02;74.96;101640.19;5033131;28;20032;-77
2023/05/21 04:18:09;;;;;;;6.05;3.63;;;;;;;13.02;74.87;101645.41;5030001;28;20036;-78
2023/05/21 04:20:35;;;;;;;5.57;3.60;;;;;;;13.00;74.73;101642.84;5033041;28;20025;-77
2023/05/21 04:23:01;;;;;;;6.47;3.45;;;;;;;13.00;75.09;101644.56;5030579;28;20040;-77
2023/05/21 04:25:27;;;;;;;8.63;3.60;;;;;;;12.97;75.01;101647.28;5033312;28;21643;-77
2023/05/21 04:27:53;;;;;;;6.00;3.45;;;;;;;12.96;75.30;101645.56;5031942;28;20116;-77
2023/05/21 04:30:18;;;;;;;5.07;3.35;;;;;;;12.96;75.52;101654.25;5032152;28;20024;-77
2023/05/21 04:32:46;;;;;;;6.57;3.38;;;;;;;12.98;75.59;101654.22;5032788;28;20021;-78
2023/05/21 04:35:13;;;;;;;5.30;3.35;;;;;;;12.99;75.62;101658.53;5030274;28;20029;-77
2023/05/21 04:37:40;;;;;;;5.78;3.20;;;;;;;13.00;75.50;101652.41;5031329;28;20018;-77
2023/05/21 04:40:08;;;;;;;5.00;3.10;;;;;;;13.02;75.68;101650.63;5030789;28;20079;-79
2023/05/21 04:42:33;;;;;;;5.82;3.63;;;;;;;13.04;75.36;101659.28;5030487;28;20099;-77
2023/05/21 04:44:58;;;;;;;4.35;3.42;;;;;;;13.05;75.63;101661.00;5034598;28;20495;-77
2023/05/21 04:47:24;;;;;;;4.60;3.40;;;;;;;13.07;75.55;101659.22;5031927;28;20021;-77
2023/05/21 04:49:49;;;;;;;4.80;3.63;;;;;;;13.10;75.95;101659.16;5034558;28;20373;-77
2023/05/21 04:52:15;;;;;;;6.88;4.03;;;;;;;13.11;75.90;101660.88;5033961;28;20099;-77
2023/05/21 04:54:41;;;;;;;6.10;3.78;;;;;;;13.11;75.77;101655.66;5034169;28;20058;-77
2023/05/21 04:57:07;;;;;;;6.82;3.85;;;;;;;13.14;75.84;101659.94;5034539;28;20084;-77
2023/05/21 04:59:32;;;;;;;5.13;3.72;;;;;;;13.13;75.90;101659.09;5034076;28;20053;-77
2023/05/21 05:01:58;;;;;;;5.93;3.92;;;;;;;13.16;75.93;101659.00;5034301;28;20025;-77
2023/05/21 05:04:23;;;;;;;5.78;4.10;;;;;;;13.17;75.97;101657.25;5034215;28;20425;-77
2023/05/21 05:06:49;;;;;;;4.95;3.80;;;;;;;13.17;76.21;101663.34;5034451;28;20441;-77
2023/05/21 05:09:14;;;;;;;5.57;4.03;;;;;;;13.18;76.19;101657.22;5034496;28;20017;-77
2023/05/21 05:11:40;;;;;;;4.95;3.50;;;;;;;13.21;76.14;101656.31;5034071;28;20017;-77
2023/05/21 05:14:05;;;;;;;4.88;3.55;;;;;;;13.20;76.14;101655.44;5034352;28;20491;-77
2023/05/21 05:16:31;;;;;;;4.97;3.83;;;;;;;13.23;76.27;101651.03;5034123;28;20021;-77
2023/05/21 05:18:56;;;;;;;5.93;4.10;;;;;;;13.25;76.91;101662.31;5034028;28;20026;-77
2023/05/21 05:21:22;;;;;;;7.30;3.92;;;;;;;13.25;76.41;101642.25;5034109;28;20461;-77
2023/05/21 05:23:47;;;;;;;5.28;4.13;;;;;;;13.30;76.71;101647.38;5034012;28;20030;-77
2023/05/21 05:26:13;;;;;;;5.22;4.07;;;;;;;13.30;76.56;101644.78;5033984;28;20092;-77
2023/05/21 05:28:38;;;;;;;6.03;3.97;;;;;;;13.32;76.18;101649.06;5033763;28;20018;-77
2023/05/21 05:31:03;;;;;;;7.78;4.38;;;;;;;13.33;76.35;101644.66;5033862;28;20465;-77
2023/05/21 05:33:29;;;;;;;5.90;3.95;;;;;;;13.34;76.87;101652.50;5033942;28;20022;-77
2023/05/21 05:35:54;;;;;;;5.80;4.03;;;;;;;13.37;76.89;101646.31;5033939;28;20126;-76
2023/05/21 05:38:19;;;;;;;5.53;4.10;;;;;;;13.40;76.72;101648.91;5033754;28;20018;-77
2023/05/21 05:40:45;;;;;;;8.23;4.53;;;;;;;13.42;76.88;101649.72;5033439;28;20060;-77
2023/05/21 05:43:10;;;;;;;6.75;4.10;;;;;;;13.45;76.55;101652.25;5033362;28;20025;-77
2023/05/21 05:45:35;;;;;;;5.38;4.20;;;;;;;13.50;76.87;101657.38;5033306;28;20382;-77
2023/05/21 05:48:01;;;;;;;6.38;4.57;;;;;;;13.53;77.10;101651.19;5032285;28;20366;-77
2023/05/21 05:50:26;;;;;;;5.68;4.07;;;;;;;13.59;77.09;101651.91;5033393;28;20024;-77
2023/05/21 05:52:52;;;;;;;7.07;5.00;;;;;;;13.63;77.19;101647.47;5033175;28;20038;-77
2023/05/21 05:55:17;;;;;;;8.35;4.85;;;;;;;13.68;77.18;101648.19;5033374;28;20100;-77
2023/05/21 05:57:42;;;;;;;6.00;4.30;;;;;;;13.72;76.88;101647.22;5033174;28;20017;-77
2023/05/21 06:00:09;;;;;;;6.32;4.07;;;;;;;13.76;76.94;101648.88;5033692;28;20025;-77
2023/05/21 06:02:36;;;;;;;6.55;4.40;;;;;;;13.80;77.09;101653.13;5034022;28;20018;-77
2023/05/21 06:05:01;;;;;;;5.20;3.95;;;;;;;13.87;76.49;101658.16;5032439;28;20435;-77
2023/05/21 06:07:27;;;;;;;6.03;4.32;;;;;;;13.90;76.54;101652.84;5032157;28;20033;-77
2023/05/21 06:09:52;;;;;;;5.90;4.32;;;;;;;13.96;77.40;101647.47;5032799;28;20056;-77
2023/05/21 06:12:17;;;;;;;6.70;4.75;;;;;;;14.03;77.23;101646.41;5034221;28;20037;-77
2023/05/21 06:14:44;;;;;;;6.85;4.93;;;;;;;14.08;76.74;101646.28;5028146;28;20033;-76
2023/05/21 06:17:10;;;;;;;6.63;4.65;;;;;;;14.14;76.48;101653.94;5022888;28;20056;-76
2023/05/21 06:19:35;;;;;;;5.90;4.78;;;;;;;14.22;76.22;101651.13;5027149;28;20456;-77
2023/05/21 06:22:00;;;;;;;6.72;5.15;;;;;;;14.27;75.88;101651.84;5026867;28;20036;-76
2023/05/21 06:24:25;;;;;;;6.85;4.90;;;;;;;14.33;76.29;101649.06;5026924;28;20035;-77
2023/05/21 06:26:51;;;;;;;5.68;4.35;;;;;;;14.38;75.82;101648.94;5026874;28;20029;-76
2023/05/21 06:29:16;;;;;;;6.63;4.90;;;;;;;14.45;75.63;101652.22;5027151;28;20370;-76
2023/05/21 06:31:42;;;;;;;6.47;5.07;;;;;;;14.47;75.35;101650.44;5026779;28;20025;-76
2023/05/21 06:34:08;;;;;;;7.03;5.10;;;;;;;14.51;74.87;101646.81;5026963;28;20029;-76
2023/05/21 06:36:33;;;;;;;7.78;5.00;;;;;;;14.55;75.19;101649.31;5026483;28;20040;-77
2023/05/21 06:38:59;;;;;;;6.78;5.15;;;;;;;14.61;74.76;101648.25;5026552;28;20591;-77
2023/05/21 06:41:25;;;;;;;6.97;4.80;;;;;;;14.65;75.48;101655.13;5026577;28;20021;-78
2023/05/21 06:43:50;;;;;;;6.55;4.82;;;;;;;14.72;75.05;101648.81;5026732;28;20033;-76
2023/05/21 06:46:15;;;;;;;7.60;5.25;;;;;;;14.78;74.19;101650.38;5026633;28;20032;-77
2023/05/21 06:48:41;;;;;;;6.90;4.70;;;;;;;14.82;73.94;101645.94;5025385;28;20056;-77
2023/05/21 06:51:06;;;;;;;6.20;4.78;;;;;;;14.87;74.33;101649.25;5026764;28;20551;-77
2023/05/21 06:53:31;;;;;;;6.32;4.95;;;;;;;14.92;73.36;101651.75;5026803;28;20065;-77
2023/05/21 06:55:57;;;;;;;7.13;4.95;;;;;;;14.97;74.25;101647.19;5026537;28;20392;-77
2023/05/21 06:58:22;;;;;;;6.45;4.53;;;;;;;15.03;74.09;101650.47;5026090;28;20025;-78
2023/05/21 07:00:48;;;;;;;8.68;5.25;;;;;;;15.09;73.11;101640.72;5026551;28;20049;-77
2023/05/21 07:03:13;;;;;;;7.10;5.13;;;;;;;15.12;73.82;101643.25;5025898;28;20094;-77
2023/05/21 07:05:39;;;;;;;7.40;4.93;;;;;;;15.17;73.86;101641.34;5026441;28;20033;-77
2023/05/21 07:08:04;;;;;;;7.18;4.72;;;;;;;15.22;74.00;101636.78;5026499;28;20029;-77
2023/05/21 07:10:29;;;;;;;6.28;4.70;;;;;;;15.29;74.10;101638.31;5026503;28;20033;-78
2023/05/21 07:12:55;;;;;;;6.05;4.88;;;;;;;15.35;74.29;101634.63;5026575;28;20070;-78
2023/05/21 07:15:20;;;;;;;7.38;4.97;;;;;;;15.41;73.21;101630.94;5026675;28;20025;-78
2023/05/21 07:17:45;;;;;;;6.78;5.15;;;;;;;15.45;73.15;101625.56;5026133;28;20025;-77
2023/05/21 07:20:11;;;;;;;8.40;5.03;;;;;;;15.51;73.42;101619.25;5025616;28;20029;-78
2023/05/21 07:22:38;;;;;;;8.70;5.30;;;;;;;15.58;71.85;101620.75;5025081;28;20029;-78
2023/05/21 07:25:04;;;;;;;7.55;5.60;;;;;;;15.62;71.90;101621.50;5026655;28;20031;-78
2023/05/21 07:27:29;;;;;;;9.68;5.90;;;;;;;15.67;71.62;101621.34;5026634;28;20029;-78
2023/05/21 07:29:54;;;;;;;8.13;5.55;;;;;;;15.71;71.99;101617.72;5026304;28;20037;-78
2023/05/21 07:32:20;;;;;;;7.93;5.80;;;;;;;15.75;71.57;101616.69;5026649;28;20018;-78
2023/05/21 07:34:46;;;;;;;9.77;5.55;;;;;;;15.81;71.71;101618.22;5026544;28;20501;-78
2023/05/21 07:37:11;;;;;;;7.05;5.25;;;;;;;15.87;72.19;101618.06;5026310;28;20033;-80
2023/05/21 07:39:37;;;;;;;8.75;5.70;;;;;;;15.96;72.19;101619.50;5027260;28;20780;-78
2023/05/21 07:42:02;;;;;;;7.68;5.47;;;;;;;16.02;72.27;101619.28;5026305;28;20489;-77
2023/05/21 07:44:27;;;;;;;7.72;5.75;;;;;;;16.07;71.69;101619.94;5024787;28;20064;-78
2023/05/21 07:46:53;;;;;;;7.05;5.60;;;;;;;16.13;71.75;101621.50;5026066;28;20026;-78
2023/05/21 07:49:18;;;;;;;8.40;5.78;;;;;;;16.18;71.73;101615.19;5026108;28;20477;-77
2023/05/21 07:51:43;;;;;;;8.68;5.70;;;;;;;16.23;70.78;101623.72;5026103;28;20068;-77
2023/05/21 07:54:09;;;;;;;6.93;5.45;;;;;;;16.27;71.47;101623.59;5025641;28;20037;-77
2023/05/21 07:56:34;;;;;;;8.30;5.18;;;;;;;16.31;71.06;101619.97;5026324;28;20021;-77
2023/05/21 07:59:00;;;;;;;8.27;5.70;;;;;;;16.34;70.74;101619.84;5025489;28;20041;-77
2023/05/21 08:01:27;;;;;;;7.97;5.82;;;;;;;16.37;70.92;101625.00;5025765;28;20033;-77
2023/05/21 08:03:52;;;;;;;8.10;5.78;;;;;;;16.40;70.15;101622.22;5026240;28;20026;-77
2023/05/21 08:06:17;;;;;;;8.05;5.80;;;;;;;16.43;71.04;101622.13;5026425;28;20021;-77
2023/05/21 08:08:42;;;;;;;8.13;5.85;;;;;;;16.47;70.93;101617.63;5025764;28;20033;-77
2023/05/21 08:11:08;;;;;;;9.02;5.72;;;;;;;16.51;70.73;101617.44;5024837;28;20029;-77
2023/05/21 08:13:33;;;;;;;7.75;5.78;;;;;;;16.53;69.85;101615.63;5025542;28;20029;-77
2023/05/21 08:15:58;;;;;;;8.10;6.05;;;;;;;16.58;69.34;101617.19;5028406;28;20045;-77
2023/05/21 08:18:24;;;;;;;9.95;6.32;;;;;;;16.59;70.78;101619.78;5027867;28;20053;-77
2023/05/21 08:20:49;;;;;;;7.63;5.88;;;;;;;16.67;70.63;101612.44;5028964;28;20472;-78
2023/05/21 08:23:14;;;;;;;7.40;5.90;;;;;;;16.75;70.49;101608.66;5029467;28;20115;-77
2023/05/21 08:25:40;;;;;;;10.43;6.25;;;;;;;16.82;71.01;101610.97;5029412;28;20029;-77
2023/05/21 08:28:06;;;;;;;9.35;6.20;;;;;;;16.87;70.08;101617.84;5029220;28;20033;-78
2023/05/21 08:30:31;;;;;;;8.52;6.30;;;;;;;16.91;69.53;101607.13;5029407;28;20187;-78
2023/05/21 08:32:57;;;;;;;9.88;6.75;;;;;;;16.95;69.36;101615.78;5029263;28;20096;-78
2023/05/21 08:35:23;;;;;;;7.82;5.60;;;;;;;16.98;68.78;101610.41;5029396;28;20033;-78
2023/05/21 08:37:48;;;;;;;8.05;5.68;;;;;;;17.04;69.83;101604.03;5029239;28;20040;-77
2023/05/21 08:40:13;;;;;;;9.20;5.78;;;;;;;17.08;69.20;101595.94;5029114;28;20103;-77
2023/05/21 08:42:43;;;;;;;8.10;6.15;;;;;;;17.14;68.82;101600.97;5027814;28;20587;-78
2023/05/21 08:45:11;;;;;;;8.23;6.20;;;;;;;17.20;68.72;101597.22;5028888;28;20060;-76
2023/05/21 08:47:43;;;;;;;7.70;5.40;;;;;;;17.26;67.87;101596.09;5029054;28;20396;-76
2023/05/21 08:50:11;;;;;;;6.82;5.10;;;;;;;17.32;68.59;101603.75;5029253;28;20034;-78
2023/05/21 08:52:36;;;;;;;6.95;5.60;;;;;;;17.38;68.71;101600.00;5028912;28;20045;-78
2023/05/21 08:55:06;;;;;;;9.32;6.00;;;;;;;17.43;67.82;101590.16;5028519;28;20029;-78
2023/05/21 08:57:31;;;;;;;7.82;6.28;;;;;;;17.48;67.81;101592.56;5028786;28;20044;-78
2023/05/21 08:59:57;;;;;;;7.85;5.93;;;;;;;17.55;69.75;101596.66;5028749;28;20033;-78
2023/05/21 09:02:25;;;;;;;8.80;6.57;;;;;;;17.60;67.92;101594.66;5028891;28;20029;-77
2023/05/21 09:04:57;;;;;;;8.02;6.10;;;;;;;17.60;67.12;101592.91;5028868;28;20026;-78
2023/05/21 09:07:29;;;;;;;9.02;6.57;;;;;;;17.64;68.85;101593.63;5028574;28;20099;-78
2023/05/21 09:10:04;;;;;;;8.25;6.13;;;;;;;17.68;67.38;101584.69;5028868;28;20064;-78
2023/05/21 09:12:30;;;;;;;8.95;6.32;;;;;;;17.73;68.82;101576.56;5028816;28;20086;-78
2023/05/21 09:14:57;;;;;;;8.50;5.88;;;;;;;17.80;67.77;101577.16;5028724;28;20029;-78
2023/05/21 09:17:23;;;;;;;7.93;5.63;;;;;;;17.84;67.63;101578.72;5028613;28;20035;-78
2023/05/21 09:20:16;;;;;;;7.40;5.70;;;;;;;17.88;67.17;101575.06;5029094;28;20057;-77
2023/05/21 09:22:44;;;;;;;9.82;6.95;;;;;;;17.90;67.25;101567.94;5028679;28;20091;-77
2023/05/21 09:25:11;;;;;;;9.45;6.53;;;;;;;17.97;67.09;101569.34;5027310;28;20029;-78
2023/05/21 09:27:37;;;;;;;8.48;6.68;;;;;;;17.99;66.42;101572.81;5028386;28;20433;-80
2023/05/21 09:30:05;;;;;;;8.30;6.28;;;;;;;18.04;67.10;101570.81;5027867;28;20485;-78
2023/05/21 09:32:30;;;;;;;8.68;5.97;;;;;;;18.10;66.39;101568.84;5026668;28;20041;-78
2023/05/21 09:34:55;;;;;;;8.70;6.65;;;;;;;18.12;65.82;101572.25;5028213;28;20021;-78
2023/05/21 09:37:21;;;;;;;10.25;6.60;;;;;;;18.15;65.56;101574.72;5028061;28;20112;-78
2023/05/21 09:39:47;;;;;;;9.90;7.10;;;;;;;18.18;66.71;101566.69;5027951;28;20033;-78
2023/05/21 09:42:12;;;;;;;9.27;7.13;;;;;;;18.22;67.19;101568.28;5028352;28;20062;-77
2023/05/21 09:44:38;;;;;;;9.20;7.10;;;;;;;18.25;65.81;101570.78;5028116;28;20838;-77
2023/05/21 09:47:04;;;;;;;9.38;6.47;;;;;;;18.30;67.80;101570.56;5026529;28;20029;-78
2023/05/21 09:49:30;;;;;;;10.40;7.15;;;;;;;18.32;66.81;101564.28;5027497;28;20032;-77
2023/05/21 09:51:58;;;;;;;12.18;7.45;;;;;;;18.34;66.40;101562.41;5027191;28;20076;-77
2023/05/21 09:54:29;;;;;;;11.88;7.57;;;;;;;18.39;66.77;101562.19;5026334;28;20026;-76
2023/05/21 09:56:54;;;;;;;11.23;7.55;;;;;;;18.42;66.05;101561.22;5027254;28;20029;-76
2023/05/21 09:59:20;;;;;;;10.60;8.48;;;;;;;18.45;65.71;101563.69;5027575;28;20036;-77
2023/05/21 10:01:48;;;;;;;10.52;8.10;;;;;;;18.52;67.23;101556.38;5027695;28;20076;-78
2023/05/21 10:04:14;;;;;;;9.88;7.80;;;;;;;18.59;65.81;101552.50;5026532;28;20032;-77
2023/05/21 10:06:44;;;;;;;10.77;7.32;;;;;;;18.66;66.73;101554.75;5027621;28;20029;-77
2023/05/21 10:09:10;;;;;;;10.50;7.65;;;;;;;18.72;64.65;101550.13;5027543;28;20044;-78
2023/05/21 10:11:36;;;;;;;11.32;8.30;;;;;;;18.77;65.57;101551.59;5027232;28;20021;-77
2023/05/21 10:14:07;;;;;;;10.63;8.10;;;;;;;18.84;66.68;101549.50;5025637;28;20150;-77
2023/05/21 10:16:34;;;;;;;11.07;8.40;;;;;;;18.90;64.67;101550.97;5027298;28;20459;-77
2023/05/21 10:19:01;;;;;;;11.77;9.00;;;;;;;18.93;65.30;101550.84;5026742;28;20146;-79
2023/05/21 10:21:27;;;;;;;11.52;8.45;;;;;;;18.96;64.82;101553.34;5026954;28;20053;-78
2023/05/21 10:23:52;;;;;;;12.52;8.48;;;;;;;18.99;64.74;101547.06;5026823;28;20421;-78
2023/05/21 10:26:20;;;;;;;10.27;7.68;;;;;;;19.02;64.18;101544.28;5027170;28;20111;-77
2023/05/21 10:28:46;;;;;;;11.25;8.60;;;;;;;19.08;66.32;101547.47;5027097;28;20116;-78
2023/05/21 10:31:12;;;;;;;12.48;9.52;;;;;;;19.18;65.38;101550.50;5026904;28;20112;-79
2023/05/21 10:33:37;;;;;;;12.93;9.40;;;;;;;19.24;64.69;101555.47;5027001;28;20025;-78
2023/05/21 10:36:03;;;;;;;11.45;9.18;;;;;;;19.28;63.13;101555.31;5026837;28;20032;-78
2023/05/21 10:38:30;;;;;;;12.93;9.35;;;;;;;19.30;63.45;101550.81;5026181;28;20128;-78
2023/05/21 10:40:57;;;;;;;11.82;9.02;;;;;;;19.34;62.65;101549.69;5026800;28;20032;-79
2023/05/21 10:43:47;;;;;;;12.25;8.77;;;;;;;19.34;63.42;101541.78;5026659;28;20037;-79
2023/05/21 10:46:36;;;;;;;14.00;8.77;;;;;;;19.30;62.52;101537.63;5025838;28;20625;-80
2023/05/21 10:49:24;;;;;;;12.05;8.32;;;;;;;19.25;63.89;101538.69;5026106;28;20028;-78
2023/05/21 10:51:57;;;;;;;12.45;9.10;;;;;;;19.20;63.21;101540.72;5026325;28;20441;-78
2023/05/21 10:54:35;;;;;;;13.05;9.32;;;;;;;19.17;64.11;101527.69;5026110;28;20212;-78
2023/05/21 10:57:16;;;;;;;15.02;10.00;;;;;;;19.18;65.23;101524.09;5026322;28;20032;-78
2023/05/21 10:59:43;;;;;;;12.25;9.38;;;;;;;19.20;64.67;101522.25;5025690;28;20129;-78
2023/05/21 11:02:11;;;;;;;12.95;9.70;;;;;;;19.22;64.54;101523.03;5026310;28;20025;-78
2023/05/21 11:04:40;;;;;;;12.95;9.93;;;;;;;19.21;63.58;101520.50;5026603;28;20030;-79
2023/05/21 11:07:06;;;;;;;13.05;9.23;;;;;;;19.24;65.88;101504.47;5025874;28;20393;-79
2023/05/21 11:09:31;;;;;;;12.13;9.23;;;;;;;19.24;63.54;101521.16;5026474;28;20666;-79
2023/05/21 11:11:58;;;;;;;13.15;9.52;;;;;;;19.23;63.88;101508.91;5026219;28;20025;-77
2023/05/21 11:14:41;;;;;;;13.55;9.48;;;;;;;19.22;64.79;101517.75;5026393;28;20039;-78
2023/05/21 11:17:06;;;;;;;13.23;9.90;;;;;;;19.22;65.00;101504.56;5025044;28;20025;-78
2023/05/21 11:19:40;;;;;;;13.38;9.93;;;;;;;19.24;64.71;101507.97;5026277;28;20044;-79
2023/05/21 11:22:26;;;;;;;13.07;9.13;;;;;;;19.25;65.23;101504.41;5025966;28;20029;-77